sensor_id;sensor_type;location;lat;lon;timestamp;temperature;humidity
52125;DHT22;38119;52.710;6.398;2023-04-07T00:00:56;7.90;99.90
52125;DHT22;38119;52.710;6.398;2023-04-07T00:03:22;7.90;99.90
52125;DHT22;38119;52.710;6.398;2023-04-07T00:05:48;7.90;99.90
52125;DHT22;38119;52.710;6.398;2023-04-07T00:08:13;7.90;99.90
52125;DHT22;38119;52.710;6.398;2023-04-07T00:10:39;7.90;99.90
52125;DHT22;38119;52.710;6.398;2023-04-07T00:13:05;7.90;99.90
52125;DHT22;38119;52.710;6.398;2023-04-07T00:15:31;7.90;99.90
52125;DHT22;38119;52.710;6.398;2023-04-07T00:17:56;7.90;99.90
52125;DHT22;38119;52.710;6.398;2023-04-07T00:20:22;7.90;99.90
52125;DHT22;38119;52.710;6.398;2023-04-07T00:22:47;7.90;99.90
52125;DHT22;38119;52.710;6.398;2023-04-07T00:25:13;7.90;99.90
52125;DHT22;38119;52.710;6.398;2023-04-07T00:27:39;7.90;99.90
52125;DHT22;38119;52.710;6.398;2023-04-07T00:30:05;7.80;99.90
52125;DHT22;38119;52.710;6.398;2023-04-07T00:32:31;7.90;99.90
52125;DHT22;38119;52.710;6.398;2023-04-07T00:34:57;7.80;99.90
52125;DHT22;38119;52.710;6.398;2023-04-07T00:37:22;7.90;99.90
52125;DHT22;38119;52.710;6.398;2023-04-07T00:39:50;7.90;99.90
52125;DHT22;38119;52.710;6.398;2023-04-07T00:42:16;7.90;99.90
52125;DHT22;38119;52.710;6.398;2023-04-07T00:44:42;7.90;99.90
52125;DHT22;38119;52.710;6.398;2023-04-07T00:47:07;7.90;99.90
52125;DHT22;38119;52.710;6.398;2023-04-07T00:49:33;7.90;99.90
52125;DHT22;38119;52.710;6.398;2023-04-07T00:51:58;7.90;99.90
52125;DHT22;38119;52.710;6.398;2023-04-07T00:54:24;7.90;99.90
52125;DHT22;38119;52.710;6.398;2023-04-07T00:56:51;7.90;99.90
52125;DHT22;38119;52.710;6.398;2023-04-07T00:59:17;7.90;99.90
52125;DHT22;38119;52.710;6.398;2023-04-07T01:02:06;7.90;99.90
52125;DHT22;38119;52.710;6.398;2023-04-07T01:04:38;7.90;99.90
52125;DHT22;38119;52.710;6.398;2023-04-07T01:07:14;7.90;99.90
52125;DHT22;38119;52.710;6.398;2023-04-07T01:09:47;8.00;99.90
52125;DHT22;38119;52.710;6.398;2023-04-07T01:12:28;7.90;99.90
52125;DHT22;38119;52.710;6.398;2023-04-07T01:14:59;7.90;99.90
52125;DHT22;38119;52.710;6.398;2023-04-07T01:17:26;7.90;99.90
52125;DHT22;38119;52.710;6.398;2023-04-07T01:19:57;7.90;99.90
52125;DHT22;38119;52.710;6.398;2023-04-07T01:22:28;7.90;99.90
52125;DHT22;38119;52.710;6.398;2023-04-07T01:25:13;7.90;99.90
52125;DHT22;38119;52.710;6.398;2023-04-07T01:30:39;7.90;99.90
52125;DHT22;38119;52.710;6.398;2023-04-07T01:33:09;7.90;99.90
52125;DHT22;38119;52.710;6.398;2023-04-07T01:35:36;7.90;99.90
52125;DHT22;38119;52.710;6.398;2023-04-07T01:38:04;7.90;99.90
52125;DHT22;38119;52.710;6.398;2023-04-07T01:40:32;8.00;99.90
52125;DHT22;38119;52.710;6.398;2023-04-07T01:42:59;7.90;99.90
52125;DHT22;38119;52.710;6.398;2023-04-07T01:45:26;7.90;99.90
52125;DHT22;38119;52.710;6.398;2023-04-07T01:47:52;8.00;99.90
52125;DHT22;38119;52.710;6.398;2023-04-07T01:50:19;8.00;99.90
52125;DHT22;38119;52.710;6.398;2023-04-07T01:52:46;8.00;99.90
52125;DHT22;38119;52.710;6.398;2023-04-07T01:55:12;8.00;99.90
52125;DHT22;38119;52.710;6.398;2023-04-07T01:57:37;8.00;99.90
52125;DHT22;38119;52.710;6.398;2023-04-07T02:00:04;8.00;99.90
52125;DHT22;38119;52.710;6.398;2023-04-07T02:02:32;8.00;99.90
52125;DHT22;38119;52.710;6.398;2023-04-07T02:05:02;7.90;99.90
52125;DHT22;38119;52.710;6.398;2023-04-07T02:07:41;7.90;99.90
52125;DHT22;38119;52.710;6.398;2023-04-07T02:10:13;7.90;99.90
52125;DHT22;38119;52.710;6.398;2023-04-07T02:12:40;8.00;99.90
52125;DHT22;38119;52.710;6.398;2023-04-07T02:15:08;8.00;99.90
52125;DHT22;38119;52.710;6.398;2023-04-07T02:17:38;8.00;99.90
52125;DHT22;38119;52.710;6.398;2023-04-07T02:20:06;8.00;99.90
52125;DHT22;38119;52.710;6.398;2023-04-07T02:22:32;8.00;99.90
52125;DHT22;38119;52.710;6.398;2023-04-07T02:24:58;8.00;99.90
52125;DHT22;38119;52.710;6.398;2023-04-07T02:27:23;8.00;99.90
52125;DHT22;38119;52.710;6.398;2023-04-07T02:29:49;8.00;99.90
52125;DHT22;38119;52.710;6.398;2023-04-07T02:32:14;8.00;99.90
52125;DHT22;38119;52.710;6.398;2023-04-07T02:34:42;8.00;99.90
52125;DHT22;38119;52.710;6.398;2023-04-07T02:37:07;8.00;99.90
52125;DHT22;38119;52.710;6.398;2023-04-07T02:39:33;8.00;99.90
52125;DHT22;38119;52.710;6.398;2023-04-07T02:41:58;8.00;99.90
52125;DHT22;38119;52.710;6.398;2023-04-07T02:44:24;8.00;99.90
52125;DHT22;38119;52.710;6.398;2023-04-07T02:46:50;8.00;99.90
52125;DHT22;38119;52.710;6.398;2023-04-07T02:49:15;8.00;99.90
52125;DHT22;38119;52.710;6.398;2023-04-07T02:51:41;8.00;99.90
52125;DHT22;38119;52.710;6.398;2023-04-07T02:54:06;8.00;99.90
52125;DHT22;38119;52.710;6.398;2023-04-07T02:56:32;8.00;99.90
52125;DHT22;38119;52.710;6.398;2023-04-07T02:58:57;8.00;99.90
52125;DHT22;38119;52.710;6.398;2023-04-07T03:01:23;8.10;99.90
52125;DHT22;38119;52.710;6.398;2023-04-07T03:03:49;8.10;99.90
52125;DHT22;38119;52.710;6.398;2023-04-07T03:06:14;8.10;99.90
52125;DHT22;38119;52.710;6.398;2023-04-07T03:08:41;8.10;99.90
52125;DHT22;38119;52.710;6.398;2023-04-07T03:11:06;8.10;99.90
52125;DHT22;38119;52.710;6.398;2023-04-07T03:13:32;8.10;99.90
52125;DHT22;38119;52.710;6.398;2023-04-07T03:15:58;8.10;99.90
52125;DHT22;38119;52.710;6.398;2023-04-07T03:18:23;8.10;99.90
52125;DHT22;38119;52.710;6.398;2023-04-07T03:20:49;8.10;99.90
52125;DHT22;38119;52.710;6.398;2023-04-07T03:23:17;8.10;99.90
52125;DHT22;38119;52.710;6.398;2023-04-07T03:25:43;8.10;99.90
52125;DHT22;38119;52.710;6.398;2023-04-07T03:28:08;8.10;99.90
52125;DHT22;38119;52.710;6.398;2023-04-07T03:30:34;8.10;99.90
52125;DHT22;38119;52.710;6.398;2023-04-07T03:32:59;8.10;99.90
52125;DHT22;38119;52.710;6.398;2023-04-07T03:35:25;8.10;99.90
52125;DHT22;38119;52.710;6.398;2023-04-07T03:37:51;8.10;99.90
52125;DHT22;38119;52.710;6.398;2023-04-07T03:40:17;8.10;99.90
52125;DHT22;38119;52.710;6.398;2023-04-07T03:42:44;8.10;99.90
52125;DHT22;38119;52.710;6.398;2023-04-07T03:45:10;8.10;99.90
52125;DHT22;38119;52.710;6.398;2023-04-07T03:47:36;8.10;99.90
52125;DHT22;38119;52.710;6.398;2023-04-07T03:50:02;8.10;99.90
52125;DHT22;38119;52.710;6.398;2023-04-07T03:52:27;8.00;99.90
52125;DHT22;38119;52.710;6.398;2023-04-07T03:54:53;8.10;99.90
52125;DHT22;38119;52.710;6.398;2023-04-07T03:57:18;8.10;99.90
52125;DHT22;38119;52.710;6.398;2023-04-07T03:59:44;8.10;99.90
52125;DHT22;38119;52.710;6.398;2023-04-07T04:02:11;8.10;99.90
52125;DHT22;38119;52.710;6.398;2023-04-07T04:04:36;8.10;99.90
52125;DHT22;38119;52.710;6.398;2023-04-07T04:07:02;8.10;99.90
52125;DHT22;38119;52.710;6.398;2023-04-07T04:09:28;8.10;99.90
52125;DHT22;38119;52.710;6.398;2023-04-07T04:11:54;8.10;99.90
52125;DHT22;38119;52.710;6.398;2023-04-07T04:14:20;8.10;99.90
52125;DHT22;38119;52.710;6.398;2023-04-07T04:16:46;8.00;99.90
52125;DHT22;38119;52.710;6.398;2023-04-07T04:19:11;8.00;99.90
52125;DHT22;38119;52.710;6.398;2023-04-07T04:21:37;8.10;99.90
52125;DHT22;38119;52.710;6.398;2023-04-07T04:24:02;8.10;99.90
52125;DHT22;38119;52.710;6.398;2023-04-07T04:26:28;8.10;99.90
52125;DHT22;38119;52.710;6.398;2023-04-07T04:28:54;8.10;99.90
52125;DHT22;38119;52.710;6.398;2023-04-07T04:31:20;8.10;99.90
52125;DHT22;38119;52.710;6.398;2023-04-07T04:33:46;8.10;99.90
52125;DHT22;38119;52.710;6.398;2023-04-07T04:36:11;8.10;99.90
52125;DHT22;38119;52.710;6.398;2023-04-07T04:38:37;8.10;99.90
52125;DHT22;38119;52.710;6.398;2023-04-07T04:41:03;8.10;99.90
52125;DHT22;38119;52.710;6.398;2023-04-07T04:43:28;8.10;99.90
52125;DHT22;38119;52.710;6.398;2023-04-07T04:45:54;8.10;99.90
52125;DHT22;38119;52.710;6.398;2023-04-07T04:48:20;8.00;99.90
52125;DHT22;38119;52.710;6.398;2023-04-07T04:50:46;8.10;99.90
52125;DHT22;38119;52.710;6.398;2023-04-07T04:53:11;8.10;99.90
52125;DHT22;38119;52.710;6.398;2023-04-07T04:55:37;8.10;99.90
52125;DHT22;38119;52.710;6.398;2023-04-07T04:58:05;8.00;99.90
52125;DHT22;38119;52.710;6.398;2023-04-07T05:00:30;8.00;99.90
52125;DHT22;38119;52.710;6.398;2023-04-07T05:02:56;8.00;99.90
52125;DHT22;38119;52.710;6.398;2023-04-07T05:05:21;8.00;99.90
52125;DHT22;38119;52.710;6.398;2023-04-07T05:07:47;8.00;99.90
52125;DHT22;38119;52.710;6.398;2023-04-07T05:10:12;8.00;99.90
52125;DHT22;38119;52.710;6.398;2023-04-07T05:12:38;8.00;99.90
52125;DHT22;38119;52.710;6.398;2023-04-07T05:15:05;8.00;99.90
52125;DHT22;38119;52.710;6.398;2023-04-07T05:17:31;8.00;99.90
52125;DHT22;38119;52.710;6.398;2023-04-07T05:19:56;8.00;99.90
52125;DHT22;38119;52.710;6.398;2023-04-07T05:22:22;8.00;99.90
52125;DHT22;38119;52.710;6.398;2023-04-07T05:24:47;8.10;99.90
52125;DHT22;38119;52.710;6.398;2023-04-07T05:27:13;8.10;99.90
52125;DHT22;38119;52.710;6.398;2023-04-07T05:29:38;8.10;99.90
52125;DHT22;38119;52.710;6.398;2023-04-07T05:32:04;8.10;99.90
52125;DHT22;38119;52.710;6.398;2023-04-07T05:34:30;8.00;99.90
52125;DHT22;38119;52.710;6.398;2023-04-07T05:36:56;8.10;99.90
52125;DHT22;38119;52.710;6.398;2023-04-07T05:39:22;8.10;99.90
52125;DHT22;38119;52.710;6.398;2023-04-07T05:41:47;8.10;99.90
52125;DHT22;38119;52.710;6.398;2023-04-07T05:44:13;8.10;99.90
52125;DHT22;38119;52.710;6.398;2023-04-07T05:46:38;8.10;99.90
52125;DHT22;38119;52.710;6.398;2023-04-07T05:49:04;8.10;99.90
52125;DHT22;38119;52.710;6.398;2023-04-07T05:51:30;8.10;99.90
52125;DHT22;38119;52.710;6.398;2023-04-07T05:53:56;8.10;99.90
52125;DHT22;38119;52.710;6.398;2023-04-07T05:56:21;8.10;99.90
52125;DHT22;38119;52.710;6.398;2023-04-07T05:58:47;8.10;99.90
52125;DHT22;38119;52.710;6.398;2023-04-07T06:01:12;8.10;99.90
52125;DHT22;38119;52.710;6.398;2023-04-07T06:03:38;8.10;99.90
52125;DHT22;38119;52.710;6.398;2023-04-07T06:06:05;8.10;99.90
52125;DHT22;38119;52.710;6.398;2023-04-07T06:08:31;8.10;99.90
52125;DHT22;38119;52.710;6.398;2023-04-07T06:10:56;8.10;99.90
52125;DHT22;38119;52.710;6.398;2023-04-07T06:13:22;8.10;99.90
52125;DHT22;38119;52.710;6.398;2023-04-07T06:15:47;8.10;99.90
52125;DHT22;38119;52.710;6.398;2023-04-07T06:18:13;8.10;99.90
52125;DHT22;38119;52.710;6.398;2023-04-07T06:20:38;8.10;99.90
52125;DHT22;38119;52.710;6.398;2023-04-07T06:23:04;8.10;99.90
52125;DHT22;38119;52.710;6.398;2023-04-07T06:25:31;8.10;99.90
52125;DHT22;38119;52.710;6.398;2023-04-07T06:27:56;8.10;99.90
52125;DHT22;38119;52.710;6.398;2023-04-07T06:30:22;8.10;99.90
52125;DHT22;38119;52.710;6.398;2023-04-07T06:32:47;8.10;99.90
52125;DHT22;38119;52.710;6.398;2023-04-07T06:35:13;8.10;99.90
52125;DHT22;38119;52.710;6.398;2023-04-07T06:37:39;8.20;99.90
52125;DHT22;38119;52.710;6.398;2023-04-07T06:40:06;8.10;99.90
52125;DHT22;38119;52.710;6.398;2023-04-07T06:42:32;8.10;99.90
52125;DHT22;38119;52.710;6.398;2023-04-07T06:44:57;8.10;99.90
52125;DHT22;38119;52.710;6.398;2023-04-07T06:47:23;8.20;99.90
52125;DHT22;38119;52.710;6.398;2023-04-07T06:49:48;8.10;99.90
52125;DHT22;38119;52.710;6.398;2023-04-07T06:52:14;8.70;99.90
52125;DHT22;38119;52.710;6.398;2023-04-07T06:54:40;8.20;99.90
52125;DHT22;38119;52.710;6.398;2023-04-07T06:57:06;8.20;99.90
52125;DHT22;38119;52.710;6.398;2023-04-07T06:59:36;8.20;99.90
52125;DHT22;38119;52.710;6.398;2023-04-07T07:02:02;8.20;99.90
52125;DHT22;38119;52.710;6.398;2023-04-07T07:04:28;8.20;99.90
52125;DHT22;38119;52.710;6.398;2023-04-07T07:06:53;8.20;99.90
52125;DHT22;38119;52.710;6.398;2023-04-07T07:09:20;8.20;99.90
52125;DHT22;38119;52.710;6.398;2023-04-07T07:11:46;8.30;99.90
52125;DHT22;38119;52.710;6.398;2023-04-07T07:14:12;8.20;99.90
52125;DHT22;38119;52.710;6.398;2023-04-07T07:16:37;8.30;99.90
52125;DHT22;38119;52.710;6.398;2023-04-07T07:19:03;8.30;99.90
52125;DHT22;38119;52.710;6.398;2023-04-07T07:21:28;8.30;99.90
52125;DHT22;38119;52.710;6.398;2023-04-07T07:23:54;8.30;99.90
52125;DHT22;38119;52.710;6.398;2023-04-07T07:26:20;8.30;99.90
52125;DHT22;38119;52.710;6.398;2023-04-07T07:28:45;8.30;99.90
52125;DHT22;38119;52.710;6.398;2023-04-07T07:31:11;8.40;99.90
52125;DHT22;38119;52.710;6.398;2023-04-07T07:33:39;8.40;99.90
52125;DHT22;38119;52.710;6.398;2023-04-07T07:36:06;8.40;99.90
52125;DHT22;38119;52.710;6.398;2023-04-07T07:38:32;8.40;99.90
52125;DHT22;38119;52.710;6.398;2023-04-07T07:40:58;8.40;99.90
52125;DHT22;38119;52.710;6.398;2023-04-07T07:43:23;8.40;99.90
52125;DHT22;38119;52.710;6.398;2023-04-07T07:45:49;8.50;99.90
52125;DHT22;38119;52.710;6.398;2023-04-07T07:48:14;8.50;99.90
52125;DHT22;38119;52.710;6.398;2023-04-07T07:50:40;8.50;99.90
52125;DHT22;38119;52.710;6.398;2023-04-07T07:53:06;8.50;99.90
52125;DHT22;38119;52.710;6.398;2023-04-07T07:55:32;8.60;99.90
52125;DHT22;38119;52.710;6.398;2023-04-07T07:57:58;8.60;99.90
52125;DHT22;38119;52.710;6.398;2023-04-07T08:00:23;8.60;99.90
52125;DHT22;38119;52.710;6.398;2023-04-07T08:02:49;8.60;99.90
52125;DHT22;38119;52.710;6.398;2023-04-07T08:05:14;8.70;99.90
52125;DHT22;38119;52.710;6.398;2023-04-07T08:07:40;8.70;99.90
52125;DHT22;38119;52.710;6.398;2023-04-07T08:10:07;8.70;99.90
52125;DHT22;38119;52.710;6.398;2023-04-07T08:12:33;8.80;99.90
52125;DHT22;38119;52.710;6.398;2023-04-07T08:14:58;8.80;99.90
52125;DHT22;38119;52.710;6.398;2023-04-07T08:17:24;8.80;99.90
52125;DHT22;38119;52.710;6.398;2023-04-07T08:19:50;8.80;99.90
52125;DHT22;38119;52.710;6.398;2023-04-07T08:22:16;8.90;99.90
52125;DHT22;38119;52.710;6.398;2023-04-07T08:24:44;8.90;99.90
52125;DHT22;38119;52.710;6.398;2023-04-07T08:27:09;9.00;99.90
52125;DHT22;38119;52.710;6.398;2023-04-07T08:29:35;9.00;99.90
52125;DHT22;38119;52.710;6.398;2023-04-07T08:32:00;9.00;99.90
52125;DHT22;38119;52.710;6.398;2023-04-07T08:34:26;9.00;99.90
52125;DHT22;38119;52.710;6.398;2023-04-07T08:36:51;9.00;99.90
52125;DHT22;38119;52.710;6.398;2023-04-07T08:39:17;8.90;99.90
52125;DHT22;38119;52.710;6.398;2023-04-07T08:41:44;8.90;99.90
52125;DHT22;38119;52.710;6.398;2023-04-07T08:44:12;9.00;99.90
52125;DHT22;38119;52.710;6.398;2023-04-07T08:46:38;9.00;99.90
52125;DHT22;38119;52.710;6.398;2023-04-07T08:49:08;9.00;99.90
52125;DHT22;38119;52.710;6.398;2023-04-07T08:51:36;9.10;99.90
52125;DHT22;38119;52.710;6.398;2023-04-07T08:54:16;9.10;99.90
52125;DHT22;38119;52.710;6.398;2023-04-07T08:56:46;9.20;99.90
52125;DHT22;38119;52.710;6.398;2023-04-07T08:59:14;9.20;99.90
52125;DHT22;38119;52.710;6.398;2023-04-07T09:01:40;9.30;99.90
52125;DHT22;38119;52.710;6.398;2023-04-07T09:04:07;9.30;99.90
52125;DHT22;38119;52.710;6.398;2023-04-07T09:06:33;9.40;99.90
52125;DHT22;38119;52.710;6.398;2023-04-07T09:09:00;9.40;99.90
52125;DHT22;38119;52.710;6.398;2023-04-07T09:11:27;9.40;99.90
52125;DHT22;38119;52.710;6.398;2023-04-07T09:13:54;9.50;99.90
52125;DHT22;38119;52.710;6.398;2023-04-07T09:16:20;9.50;99.90
52125;DHT22;38119;52.710;6.398;2023-04-07T09:18:46;9.50;99.90
52125;DHT22;38119;52.710;6.398;2023-04-07T09:21:11;9.60;99.90
52125;DHT22;38119;52.710;6.398;2023-04-07T09:23:38;9.60;99.90
52125;DHT22;38119;52.710;6.398;2023-04-07T09:28:44;9.60;99.90
52125;DHT22;38119;52.710;6.398;2023-04-07T09:31:11;9.70;99.90
52125;DHT22;38119;52.710;6.398;2023-04-07T09:33:36;9.70;99.90
52125;DHT22;38119;52.710;6.398;2023-04-07T09:36:03;9.80;99.90
52125;DHT22;38119;52.710;6.398;2023-04-07T09:38:37;9.80;99.90
52125;DHT22;38119;52.710;6.398;2023-04-07T09:41:13;9.90;99.90
52125;DHT22;38119;52.710;6.398;2023-04-07T09:43:41;9.90;99.90
52125;DHT22;38119;52.710;6.398;2023-04-07T09:46:16;10.00;99.90
52125;DHT22;38119;52.710;6.398;2023-04-07T09:48:44;10.10;99.90
52125;DHT22;38119;52.710;6.398;2023-04-07T09:51:12;10.10;99.90
52125;DHT22;38119;52.710;6.398;2023-04-07T09:56:08;10.20;99.90
52125;DHT22;38119;52.710;6.398;2023-04-07T09:58:34;10.20;99.90
52125;DHT22;38119;52.710;6.398;2023-04-07T10:01:02;10.20;99.90
52125;DHT22;38119;52.710;6.398;2023-04-07T10:03:28;10.30;99.90
52125;DHT22;38119;52.710;6.398;2023-04-07T10:05:53;10.20;99.90
52125;DHT22;38119;52.710;6.398;2023-04-07T10:08:19;10.30;99.90
52125;DHT22;38119;52.710;6.398;2023-04-07T10:10:45;10.30;99.90
52125;DHT22;38119;52.710;6.398;2023-04-07T10:13:12;10.30;99.90
52125;DHT22;38119;52.710;6.398;2023-04-07T10:15:38;10.30;99.90
52125;DHT22;38119;52.710;6.398;2023-04-07T10:18:06;10.40;99.90
52125;DHT22;38119;52.710;6.398;2023-04-07T10:20:33;10.50;99.90
52125;DHT22;38119;52.710;6.398;2023-04-07T10:23:16;10.60;99.90
52125;DHT22;38119;52.710;6.398;2023-04-07T10:25:44;10.70;99.90
52125;DHT22;38119;52.710;6.398;2023-04-07T10:28:12;10.80;99.90
52125;DHT22;38119;52.710;6.398;2023-04-07T10:30:39;10.80;99.90
52125;DHT22;38119;52.710;6.398;2023-04-07T10:33:05;10.90;99.90
52125;DHT22;38119;52.710;6.398;2023-04-07T10:36:05;10.80;99.90
52125;DHT22;38119;52.710;6.398;2023-04-07T10:38:31;10.80;99.90
52125;DHT22;38119;52.710;6.398;2023-04-07T10:40:57;10.80;99.90
52125;DHT22;38119;52.710;6.398;2023-04-07T10:43:39;10.80;99.90
52125;DHT22;38119;52.710;6.398;2023-04-07T10:46:06;10.80;99.90
52125;DHT22;38119;52.710;6.398;2023-04-07T10:48:32;10.80;99.90
52125;DHT22;38119;52.710;6.398;2023-04-07T10:53:29;10.70;99.90
52125;DHT22;38119;52.710;6.398;2023-04-07T10:55:59;10.70;99.90
52125;DHT22;38119;52.710;6.398;2023-04-07T10:58:26;10.80;99.90
52125;DHT22;38119;52.710;6.398;2023-04-07T11:03:26;10.90;99.90
52125;DHT22;38119;52.710;6.398;2023-04-07T11:05:52;11.00;99.90
52125;DHT22;38119;52.710;6.398;2023-04-07T11:08:38;11.10;99.90
52125;DHT22;38119;52.710;6.398;2023-04-07T11:11:05;11.20;99.90
52125;DHT22;38119;52.710;6.398;2023-04-07T11:13:46;11.20;99.90
52125;DHT22;38119;52.710;6.398;2023-04-07T11:16:12;11.30;99.90
52125;DHT22;38119;52.710;6.398;2023-04-07T11:18:39;11.40;99.90
52125;DHT22;38119;52.710;6.398;2023-04-07T11:21:06;11.50;99.90
52125;DHT22;38119;52.710;6.398;2023-04-07T11:23:40;11.50;99.90
52125;DHT22;38119;52.710;6.398;2023-04-07T11:26:07;11.50;99.90
52125;DHT22;38119;52.710;6.398;2023-04-07T11:28:45;11.50;99.90
52125;DHT22;38119;52.710;6.398;2023-04-07T11:31:11;11.40;99.90
52125;DHT22;38119;52.710;6.398;2023-04-07T11:33:51;11.40;99.90
52125;DHT22;38119;52.710;6.398;2023-04-07T11:36:26;11.30;99.90
52125;DHT22;38119;52.710;6.398;2023-04-07T11:38:53;11.30;99.90
52125;DHT22;38119;52.710;6.398;2023-04-07T11:41:19;11.20;99.90
52125;DHT22;38119;52.710;6.398;2023-04-07T11:43:45;11.20;99.90
52125;DHT22;38119;52.710;6.398;2023-04-07T11:46:13;11.10;99.90
52125;DHT22;38119;52.710;6.398;2023-04-07T11:48:41;11.10;99.90
52125;DHT22;38119;52.710;6.398;2023-04-07T11:51:15;11.10;99.90
52125;DHT22;38119;52.710;6.398;2023-04-07T11:53:41;11.10;99.90
52125;DHT22;38119;52.710;6.398;2023-04-07T11:56:08;11.10;99.90
52125;DHT22;38119;52.710;6.398;2023-04-07T11:58:37;11.20;99.90
52125;DHT22;38119;52.710;6.398;2023-04-07T12:01:05;11.20;99.90
52125;DHT22;38119;52.710;6.398;2023-04-07T12:03:34;11.20;99.90
52125;DHT22;38119;52.710;6.398;2023-04-07T12:06:01;11.20;99.90
52125;DHT22;38119;52.710;6.398;2023-04-07T12:08:43;11.20;99.90
52125;DHT22;38119;52.710;6.398;2023-04-07T12:11:09;11.30;99.90
52125;DHT22;38119;52.710;6.398;2023-04-07T12:13:36;11.40;99.90
52125;DHT22;38119;52.710;6.398;2023-04-07T12:16:01;11.40;99.90
52125;DHT22;38119;52.710;6.398;2023-04-07T12:18:28;11.50;99.90
52125;DHT22;38119;52.710;6.398;2023-04-07T12:20:54;11.50;99.90
52125;DHT22;38119;52.710;6.398;2023-04-07T12:23:21;11.50;99.90
52125;DHT22;38119;52.710;6.398;2023-04-07T12:25:46;11.50;99.90
52125;DHT22;38119;52.710;6.398;2023-04-07T12:28:12;11.50;99.90
52125;DHT22;38119;52.710;6.398;2023-04-07T12:30:38;11.50;99.90
52125;DHT22;38119;52.710;6.398;2023-04-07T12:33:03;11.50;99.90
52125;DHT22;38119;52.710;6.398;2023-04-07T12:35:29;11.50;99.90
52125;DHT22;38119;52.710;6.398;2023-04-07T12:37:55;11.50;99.90
52125;DHT22;38119;52.710;6.398;2023-04-07T12:40:22;11.60;99.90
52125;DHT22;38119;52.710;6.398;2023-04-07T12:42:48;11.60;99.90
52125;DHT22;38119;52.710;6.398;2023-04-07T12:45:14;11.60;99.90
52125;DHT22;38119;52.710;6.398;2023-04-07T12:47:39;11.60;99.90
52125;DHT22;38119;52.710;6.398;2023-04-07T12:50:05;11.60;99.90
52125;DHT22;38119;52.710;6.398;2023-04-07T12:52:31;11.50;99.90
52125;DHT22;38119;52.710;6.398;2023-04-07T12:54:57;11.50;99.90
52125;DHT22;38119;52.710;6.398;2023-04-07T12:57:24;11.50;99.90
52125;DHT22;38119;52.710;6.398;2023-04-07T12:59:49;11.40;99.90
52125;DHT22;38119;52.710;6.398;2023-04-07T13:02:16;11.30;99.90
52125;DHT22;38119;52.710;6.398;2023-04-07T13:04:43;11.30;99.90
52125;DHT22;38119;52.710;6.398;2023-04-07T13:07:11;11.20;99.90
52125;DHT22;38119;52.710;6.398;2023-04-07T13:09:37;11.40;99.90
52125;DHT22;38119;52.710;6.398;2023-04-07T13:12:03;12.30;99.90
52125;DHT22;38119;52.710;6.398;2023-04-07T13:14:28;12.20;99.90
52125;DHT22;38119;52.710;6.398;2023-04-07T13:16:54;12.00;99.90
52125;DHT22;38119;52.710;6.398;2023-04-07T13:19:20;11.90;99.90
52125;DHT22;38119;52.710;6.398;2023-04-07T13:21:46;11.70;99.90
52125;DHT22;38119;52.710;6.398;2023-04-07T13:24:11;11.50;99.90
52125;DHT22;38119;52.710;6.398;2023-04-07T13:26:37;11.40;99.90
52125;DHT22;38119;52.710;6.398;2023-04-07T13:29:03;11.30;99.90
52125;DHT22;38119;52.710;6.398;2023-04-07T13:31:28;11.30;99.90
52125;DHT22;38119;52.710;6.398;2023-04-07T13:33:54;11.20;99.90
52125;DHT22;38119;52.710;6.398;2023-04-07T13:36:21;11.30;99.90
52125;DHT22;38119;52.710;6.398;2023-04-07T13:38:47;11.30;99.90
52125;DHT22;38119;52.710;6.398;2023-04-07T13:41:12;11.20;99.90
52125;DHT22;38119;52.710;6.398;2023-04-07T13:43:38;11.30;99.90
52125;DHT22;38119;52.710;6.398;2023-04-07T13:46:03;11.30;99.90
52125;DHT22;38119;52.710;6.398;2023-04-07T13:48:29;11.30;99.90
52125;DHT22;38119;52.710;6.398;2023-04-07T13:50:54;11.30;99.90
52125;DHT22;38119;52.710;6.398;2023-04-07T13:53:20;11.30;99.90
52125;DHT22;38119;52.710;6.398;2023-04-07T13:55:46;11.30;99.90
52125;DHT22;38119;52.710;6.398;2023-04-07T13:58:11;11.30;99.90
52125;DHT22;38119;52.710;6.398;2023-04-07T14:00:37;11.30;99.90
52125;DHT22;38119;52.710;6.398;2023-04-07T14:03:05;11.30;99.90
52125;DHT22;38119;52.710;6.398;2023-04-07T14:05:30;11.30;99.90
52125;DHT22;38119;52.710;6.398;2023-04-07T14:07:56;11.30;99.90
52125;DHT22;38119;52.710;6.398;2023-04-07T14:10:21;11.30;99.90
52125;DHT22;38119;52.710;6.398;2023-04-07T14:12:47;11.30;99.90
52125;DHT22;38119;52.710;6.398;2023-04-07T14:15:12;11.30;99.90
52125;DHT22;38119;52.710;6.398;2023-04-07T14:17:38;11.30;99.90
52125;DHT22;38119;52.710;6.398;2023-04-07T14:20:04;11.30;99.90
52125;DHT22;38119;52.710;6.398;2023-04-07T14:22:30;11.30;99.90
52125;DHT22;38119;52.710;6.398;2023-04-07T14:24:56;11.40;99.90
52125;DHT22;38119;52.710;6.398;2023-04-07T14:27:21;11.40;99.90
52125;DHT22;38119;52.710;6.398;2023-04-07T14:29:47;11.40;99.90
52125;DHT22;38119;52.710;6.398;2023-04-07T14:32:13;11.40;99.90
52125;DHT22;38119;52.710;6.398;2023-04-07T14:34:39;11.40;99.90
52125;DHT22;38119;52.710;6.398;2023-04-07T14:37:04;11.50;99.90
52125;DHT22;38119;52.710;6.398;2023-04-07T14:39:30;11.50;99.90
52125;DHT22;38119;52.710;6.398;2023-04-07T14:41:56;11.50;99.90
52125;DHT22;38119;52.710;6.398;2023-04-07T14:44:21;11.50;99.90
52125;DHT22;38119;52.710;6.398;2023-04-07T14:46:47;11.50;99.90
52125;DHT22;38119;52.710;6.398;2023-04-07T14:49:13;11.50;99.90
52125;DHT22;38119;52.710;6.398;2023-04-07T14:51:39;11.50;99.90
52125;DHT22;38119;52.710;6.398;2023-04-07T14:54:04;11.50;99.90
52125;DHT22;38119;52.710;6.398;2023-04-07T14:56:30;11.50;99.90
52125;DHT22;38119;52.710;6.398;2023-04-07T14:58:56;11.50;99.90
52125;DHT22;38119;52.710;6.398;2023-04-07T15:01:21;11.50;99.90
52125;DHT22;38119;52.710;6.398;2023-04-07T15:03:49;11.50;99.90
52125;DHT22;38119;52.710;6.398;2023-04-07T15:06:15;11.60;99.90
52125;DHT22;38119;52.710;6.398;2023-04-07T15:08:41;11.60;99.90
52125;DHT22;38119;52.710;6.398;2023-04-07T15:11:07;11.60;99.90
52125;DHT22;38119;52.710;6.398;2023-04-07T15:13:33;11.60;99.90
52125;DHT22;38119;52.710;6.398;2023-04-07T15:16:09;11.60;99.90
52125;DHT22;38119;52.710;6.398;2023-04-07T15:18:34;11.60;99.90
52125;DHT22;38119;52.710;6.398;2023-04-07T15:21:00;11.70;99.90
52125;DHT22;38119;52.710;6.398;2023-04-07T15:23:25;11.70;99.90
52125;DHT22;38119;52.710;6.398;2023-04-07T15:25:51;11.70;99.90
52125;DHT22;38119;52.710;6.398;2023-04-07T15:28:21;11.70;99.90
52125;DHT22;38119;52.710;6.398;2023-04-07T15:30:46;11.70;99.90
52125;DHT22;38119;52.710;6.398;2023-04-07T15:33:12;11.70;99.90
52125;DHT22;38119;52.710;6.398;2023-04-07T15:35:42;11.70;99.90
52125;DHT22;38119;52.710;6.398;2023-04-07T15:38:07;11.70;99.90
52125;DHT22;38119;52.710;6.398;2023-04-07T15:40:37;11.70;99.90
52125;DHT22;38119;52.710;6.398;2023-04-07T15:43:03;11.70;99.90
52125;DHT22;38119;52.710;6.398;2023-04-07T15:45:29;11.80;99.90
52125;DHT22;38119;52.710;6.398;2023-04-07T15:47:54;11.70;99.90
52125;DHT22;38119;52.710;6.398;2023-04-07T15:50:20;11.70;99.90